Time;durP1;ratioP1;P1;durP2;ratioP2;P2;SDS_P1;SDS_P2;PMS_P1;PMS_P2;Temp;Humidity;BMP_temperature;BMP_pressure;BME280_temperature;BME280_humidity;BME280_pressure;Samples;Min_cycle;Max_cycle;Signal;HPM_P1;HPM_P2
2022/08/29 00:00:06;;;;;;;14.60;4.50;;;18.20;99.90;;;;;;5026149;28;20128;-75
2022/08/29 00:02:32;;;;;;;15.02;5.43;;;18.20;99.90;;;;;;5048257;28;20029;-74
2022/08/29 00:04:58;;;;;;;19.15;4.95;;;18.20;99.90;;;;;;5036759;28;20108;-75
2022/08/29 00:07:24;;;;;;;14.20;4.22;;;18.10;99.90;;;;;;5048510;28;20048;-76
2022/08/29 00:09:49;;;;;;;14.90;4.47;;;18.10;99.90;;;;;;5030374;28;20025;-75
2022/08/29 00:12:15;;;;;;;20.55;4.65;;;18.10;99.90;;;;;;5026310;28;20037;-74
2022/08/29 00:14:41;;;;;;;14.02;4.75;;;18.10;99.90;;;;;;5047448;28;20524;-75
2022/08/29 00:17:06;;;;;;;16.20;4.90;;;18.10;99.90;;;;;;5046190;28;20079;-75
2022/08/29 00:19:32;;;;;;;11.55;4.15;;;18.10;99.90;;;;;;5044899;28;20441;-75
2022/08/29 00:21:58;;;;;;;17.02;4.93;;;18.10;99.90;;;;;;5044942;28;20044;-75
2022/08/29 00:24:24;;;;;;;19.58;5.05;;;18.10;99.90;;;;;;5027862;28;20036;-75
2022/08/29 00:26:50;;;;;;;16.63;5.53;;;18.20;99.90;;;;;;5048219;28;20111;-74
2022/08/29 00:29:16;;;;;;;14.30;4.47;;;18.20;99.90;;;;;;5028870;28;20108;-75
2022/08/29 00:31:42;;;;;;;24.48;5.22;;;18.20;99.90;;;;;;5010336;28;20039;-74
2022/08/29 00:34:07;;;;;;;14.00;5.35;;;18.20;99.90;;;;;;5027395;28;20060;-75
2022/08/29 00:36:34;;;;;;;8.82;3.90;;;18.20;99.90;;;;;;5028964;28;20025;-75
2022/08/29 00:39:01;;;;;;;15.85;5.72;;;18.20;99.90;;;;;;5026837;28;20029;-74
2022/08/29 00:41:27;;;;;;;19.92;5.20;;;18.20;99.90;;;;;;5044489;28;20152;-74
2022/08/29 00:43:53;;;;;;;12.93;5.15;;;18.20;99.90;;;;;;5045579;28;20108;-74
2022/08/29 00:46:45;;;;;;;13.02;4.53;;;18.20;99.90;;;;;;5047618;28;20509;-75
2022/08/29 00:49:29;;;;;;;13.00;4.97;;;18.20;99.90;;;;;;5045137;28;20116;-75
2022/08/29 00:51:57;;;;;;;15.13;5.57;;;18.20;99.90;;;;;;5044728;28;20036;-75
2022/08/29 00:54:24;;;;;;;11.68;4.82;;;18.20;99.90;;;;;;5046518;28;20017;-75
2022/08/29 00:56:50;;;;;;;16.90;5.30;;;18.20;99.90;;;;;;5045445;28;20041;-76
2022/08/29 00:59:27;;;;;;;12.27;5.90;;;18.20;99.90;;;;;;5028027;28;20029;-75
2022/08/29 01:01:54;;;;;;;16.77;5.63;;;18.20;99.90;;;;;;5025964;28;20122;-75
2022/08/29 01:04:20;;;;;;;14.93;5.07;;;18.20;99.90;;;;;;5043815;28;20687;-75
2022/08/29 01:06:46;;;;;;;13.75;6.00;;;18.30;99.90;;;;;;5028749;28;20037;-76
2022/08/29 01:09:13;;;;;;;18.45;6.72;;;18.30;99.90;;;;;;5027692;28;20029;-75
2022/08/29 01:14:26;;;;;;;16.13;5.57;;;18.30;99.90;;;;;;5049755;28;20159;-75
2022/08/29 01:16:56;;;;;;;20.70;6.28;;;18.20;99.90;;;;;;5045800;28;20028;-75
2022/08/29 01:19:43;;;;;;;18.50;6.55;;;18.20;99.90;;;;;;5046170;28;20029;-74
2022/08/29 01:22:20;;;;;;;22.50;6.65;;;18.30;99.90;;;;;;5031819;28;20507;-76
2022/08/29 01:24:49;;;;;;;17.98;6.35;;;18.30;99.90;;;;;;5015870;28;20127;-75
2022/08/29 01:27:19;;;;;;;12.70;5.72;;;18.30;99.90;;;;;;5047632;28;20028;-76
2022/08/29 01:29:45;;;;;;;17.85;7.10;;;18.30;99.90;;;;;;5049442;28;20036;-76
2022/08/29 01:32:12;;;;;;;21.63;6.75;;;18.30;99.90;;;;;;5049286;28;20079;-76
2022/08/29 01:34:39;;;;;;;17.20;6.65;;;18.30;99.90;;;;;;5050167;28;20021;-75
2022/08/29 01:37:08;;;;;;;18.15;6.72;;;18.30;99.90;;;;;;5047969;28;20078;-75
2022/08/29 01:39:36;;;;;;;19.95;7.43;;;18.30;99.90;;;;;;5050118;28;20044;-74
2022/08/29 01:42:09;;;;;;;15.73;6.57;;;18.30;99.90;;;;;;5047824;28;20496;-74
2022/08/29 01:44:36;;;;;;;14.80;6.90;;;18.30;99.90;;;;;;5030923;28;21289;-74
2022/08/29 01:47:03;;;;;;;19.67;6.00;;;18.30;99.90;;;;;;5047059;28;20392;-74
2022/08/29 01:49:33;;;;;;;16.65;6.40;;;18.30;99.90;;;;;;5029086;28;20033;-74
2022/08/29 01:52:00;;;;;;;15.55;6.60;;;18.30;99.90;;;;;;5030542;28;20459;-75
2022/08/29 01:54:25;;;;;;;20.73;6.35;;;18.30;99.90;;;;;;5031656;28;20025;-74
2022/08/29 01:56:52;;;;;;;20.50;7.20;;;18.30;99.90;;;;;;5030853;28;20672;-74
2022/08/29 01:59:25;;;;;;;15.77;6.40;;;18.40;99.90;;;;;;5029948;28;20025;-74
2022/08/29 02:02:06;;;;;;;14.35;6.78;;;18.40;99.90;;;;;;5027964;28;20428;-75
2022/08/29 02:04:32;;;;;;;17.60;8.00;;;18.40;99.90;;;;;;5048371;28;20108;-74
2022/08/29 02:06:59;;;;;;;21.15;7.47;;;18.30;99.90;;;;;;5048769;28;20025;-74
2022/08/29 02:09:26;;;;;;;17.67;7.00;;;18.30;99.90;;;;;;5047983;28;20086;-74
2022/08/29 02:11:53;;;;;;;19.65;7.57;;;18.30;99.90;;;;;;5048477;28;20033;-75
2022/08/29 02:14:19;;;;;;;23.77;6.72;;;18.30;99.90;;;;;;5027885;28;20112;-74
2022/08/29 02:16:47;;;;;;;19.67;6.88;;;18.30;99.90;;;;;;5031577;28;20400;-74
2022/08/29 02:19:13;;;;;;;19.52;6.85;;;18.20;99.90;;;;;;5044685;28;20030;-74
2022/08/29 02:21:39;;;;;;;21.02;7.00;;;18.20;99.90;;;;;;5048358;28;20120;-74
2022/08/29 02:24:06;;;;;;;16.23;6.55;;;18.20;99.90;;;;;;5025662;28;20033;-74
2022/08/29 02:26:32;;;;;;;18.92;6.80;;;18.20;99.90;;;;;;5036850;28;20025;-74
2022/08/29 02:29:00;;;;;;;14.98;7.03;;;18.20;99.90;;;;;;5047112;28;20029;-74
2022/08/29 02:31:26;;;;;;;17.13;6.47;;;18.20;99.90;;;;;;5047395;28;20025;-74
2022/08/29 02:33:53;;;;;;;16.83;6.57;;;18.20;99.90;;;;;;5039138;28;20029;-75
2022/08/29 02:36:20;;;;;;;14.60;6.10;;;18.20;99.90;;;;;;5052490;28;20494;-73
2022/08/29 02:38:47;;;;;;;14.80;6.18;;;18.20;99.90;;;;;;5027571;28;20464;-74
2022/08/29 02:41:13;;;;;;;15.70;5.90;;;18.30;99.90;;;;;;5047621;28;20507;-74
2022/08/29 02:43:39;;;;;;;12.90;6.05;;;18.30;99.90;;;;;;5030095;28;20060;-74
2022/08/29 02:46:05;;;;;;;13.07;5.70;;;18.30;99.90;;;;;;5046370;28;20539;-74
2022/08/29 02:48:32;;;;;;;17.63;6.50;;;18.30;99.90;;;;;;5028880;28;20025;-75
2022/08/29 02:50:58;;;;;;;14.15;6.00;;;18.30;99.90;;;;;;5028858;28;20675;-74
2022/08/29 02:53:26;;;;;;;11.50;5.55;;;18.30;99.90;;;;;;5048877;28;20115;-75
2022/08/29 02:55:53;;;;;;;14.82;5.80;;;18.30;99.90;;;;;;5047270;28;20040;-74
2022/08/29 02:58:21;;;;;;;20.77;7.15;;;18.30;99.90;;;;;;5030540;28;20021;-74
2022/08/29 03:00:48;;;;;;;14.60;6.50;;;18.30;99.90;;;;;;5049151;28;20087;-73
2022/08/29 03:03:13;;;;;;;16.95;6.97;;;18.30;99.90;;;;;;5014943;28;20033;-74
2022/08/29 03:05:40;;;;;;;14.75;7.07;;;18.30;99.90;;;;;;5045288;28;20041;-75
2022/08/29 03:08:09;;;;;;;16.20;6.68;;;18.30;99.90;;;;;;5028751;28;20033;-75
2022/08/29 03:10:36;;;;;;;21.30;7.65;;;18.30;99.90;;;;;;5027815;28;20120;-76
2022/08/29 03:13:03;;;;;;;19.63;6.93;;;18.30;99.90;;;;;;5028467;28;20076;-75
2022/08/29 03:15:28;;;;;;;15.02;6.50;;;18.30;99.90;;;;;;5028525;28;21327;-75
2022/08/29 03:17:54;;;;;;;16.80;6.72;;;18.20;99.90;;;;;;5046227;28;20139;-75
2022/08/29 03:20:22;;;;;;;14.25;6.55;;;18.20;99.90;;;;;;5011056;28;20025;-75
2022/08/29 03:22:49;;;;;;;12.48;6.72;;;18.20;99.90;;;;;;5048409;28;20559;-75
2022/08/29 03:25:15;;;;;;;19.00;6.97;;;18.10;99.90;;;;;;5029153;28;20033;-74
2022/08/29 03:27:41;;;;;;;19.45;6.40;;;18.10;99.90;;;;;;5013884;28;20124;-74
2022/08/29 03:30:10;;;;;;;18.33;6.25;;;18.00;99.90;;;;;;5044068;28;20572;-75
2022/08/29 03:32:36;;;;;;;16.33;7.10;;;18.00;99.90;;;;;;5028945;28;20488;-74
2022/08/29 03:35:02;;;;;;;16.15;7.18;;;17.90;99.90;;;;;;5047731;28;20465;-74
2022/08/29 03:37:28;;;;;;;18.50;7.03;;;17.90;99.90;;;;;;5046488;28;20493;-75
2022/08/29 03:39:54;;;;;;;16.80;7.00;;;17.90;99.90;;;;;;5027083;28;20036;-74
2022/08/29 03:42:20;;;;;;;14.20;6.32;;;17.90;99.90;;;;;;5029109;28;20025;-75
2022/08/29 03:44:46;;;;;;;20.58;7.00;;;17.90;99.90;;;;;;5029008;28;20609;-75
2022/08/29 03:47:12;;;;;;;16.95;6.05;;;17.80;99.90;;;;;;5027652;28;20033;-75
2022/08/29 03:49:39;;;;;;;10.77;6.10;;;17.80;99.90;;;;;;5028568;28;20021;-75
2022/08/29 03:52:05;;;;;;;14.88;6.90;;;17.80;99.90;;;;;;5047338;28;20028;-75
2022/08/29 03:54:31;;;;;;;13.38;6.25;;;17.80;99.90;;;;;;5046117;28;20117;-75
2022/08/29 03:56:57;;;;;;;17.65;6.53;;;17.70;99.90;;;;;;5012954;28;20127;-75
2022/08/29 03:59:23;;;;;;;15.32;6.95;;;17.80;99.90;;;;;;5028704;28;20115;-74
2022/08/29 04:01:49;;;;;;;15.02;7.22;;;17.70;99.90;;;;;;5010937;28;20144;-74
2022/08/29 04:07:03;;;;;;;18.75;7.10;;;17.70;99.90;;;;;;5047183;28;20078;-75
2022/08/29 04:09:29;;;;;;;15.50;7.22;;;17.70;99.90;;;;;;5047088;28;20025;-75
2022/08/29 04:11:55;;;;;;;14.23;6.70;;;17.70;99.90;;;;;;5045317;28;22621;-74
2022/08/29 04:14:20;;;;;;;15.85;6.78;;;17.60;99.90;;;;;;5027331;28;20973;-74
2022/08/29 04:16:49;;;;;;;14.77;8.05;;;17.70;99.90;;;;;;5028541;28;20115;-75
2022/08/29 04:19:19;;;;;;;14.35;7.35;;;17.70;99.90;;;;;;5046541;28;20031;-74
2022/08/29 04:21:44;;;;;;;16.45;7.20;;;17.80;99.90;;;;;;5028475;28;20668;-75
2022/08/29 04:24:15;;;;;;;20.00;7.65;;;17.80;99.90;;;;;;5039722;28;20033;-74
2022/08/29 04:26:41;;;;;;;18.23;8.23;;;17.80;99.90;;;;;;5045949;28;20506;-74
2022/08/29 04:29:09;;;;;;;15.25;8.10;;;17.90;99.90;;;;;;5027760;28;20790;-75
2022/08/29 04:31:36;;;;;;;14.85;7.78;;;17.90;99.90;;;;;;5042204;28;20135;-74
2022/08/29 04:34:04;;;;;;;25.17;8.32;;;17.90;99.90;;;;;;5026291;28;20030;-74
2022/08/29 04:36:29;;;;;;;19.23;9.68;;;17.90;99.90;;;;;;5026293;28;20106;-74
2022/08/29 04:38:55;;;;;;;16.10;9.23;;;18.00;99.90;;;;;;5029040;28;20028;-75
2022/08/29 04:41:21;;;;;;;19.90;9.05;;;17.90;99.90;;;;;;5043443;28;20037;-75
2022/08/29 04:43:47;;;;;;;18.50;8.43;;;18.00;99.90;;;;;;5047156;28;20029;-75
2022/08/29 04:46:14;;;;;;;18.00;9.73;;;17.90;99.90;;;;;;5026702;28;20032;-74
2022/08/29 04:48:39;;;;;;;14.27;9.77;;;17.90;99.90;;;;;;5025690;28;20037;-74
2022/08/29 04:51:05;;;;;;;17.33;9.52;;;18.00;99.90;;;;;;5046423;28;20021;-75
2022/08/29 04:53:31;;;;;;;12.63;8.30;;;17.90;99.90;;;;;;5028783;28;20033;-74
2022/08/29 04:56:05;;;;;;;13.95;9.07;;;17.90;99.90;;;;;;5044707;28;20029;-74
2022/08/29 04:58:33;;;;;;;17.27;9.13;;;17.90;99.90;;;;;;5045157;28;20080;-75
2022/08/29 05:00:59;;;;;;;10.57;7.93;;;17.90;99.90;;;;;;5026459;28;20028;-74
2022/08/29 05:03:25;;;;;;;11.40;7.80;;;17.80;99.90;;;;;;5043498;28;20037;-74
2022/08/29 05:06:06;;;;;;;13.23;7.35;;;17.80;99.90;;;;;;5044846;28;20087;-74
2022/08/29 05:08:36;;;;;;;12.02;6.65;;;17.80;99.90;;;;;;5026181;28;20021;-75
2022/08/29 05:11:05;;;;;;;9.73;5.95;;;17.80;99.90;;;;;;5028202;28;20040;-74
2022/08/29 05:13:32;;;;;;;14.00;6.50;;;17.80;99.90;;;;;;5009365;28;20047;-74
2022/08/29 05:15:58;;;;;;;11.60;6.30;;;17.80;99.90;;;;;;5026954;28;20411;-74
2022/08/29 05:18:24;;;;;;;10.80;5.70;;;17.80;99.90;;;;;;5025049;28;20444;-74
2022/08/29 05:20:53;;;;;;;6.88;5.45;;;17.70;99.90;;;;;;5042768;28;20025;-74
2022/08/29 05:23:19;;;;;;;8.02;5.00;;;17.70;99.90;;;;;;5044695;28;20082;-75
2022/08/29 05:25:44;;;;;;;7.75;5.10;;;17.70;99.90;;;;;;5027402;28;20041;-74
2022/08/29 05:28:12;;;;;;;8.77;4.60;;;17.80;99.90;;;;;;5045434;28;20083;-74
2022/08/29 05:30:38;;;;;;;10.15;5.28;;;17.80;99.90;;;;;;5008870;28;20025;-74
2022/08/29 05:33:05;;;;;;;9.65;5.40;;;17.80;99.90;;;;;;5042432;28;20783;-75
2022/08/29 05:35:33;;;;;;;9.15;4.85;;;17.70;99.90;;;;;;5025473;28;20656;-73
2022/08/29 05:38:04;;;;;;;7.80;5.03;;;17.70;99.90;;;;;;5027759;28;20640;-74
2022/08/29 05:40:29;;;;;;;6.93;4.97;;;17.70;99.90;;;;;;5042076;28;20037;-79
2022/08/29 05:42:55;;;;;;;7.47;4.68;;;17.70;99.90;;;;;;5007706;28;20036;-75
2022/08/29 05:45:22;;;;;;;8.02;5.43;;;17.70;99.90;;;;;;5045441;28;20150;-73
2022/08/29 05:47:48;;;;;;;6.30;4.72;;;17.80;99.90;;;;;;5042344;28;20029;-77
2022/08/29 05:50:15;;;;;;;5.75;4.25;;;17.80;99.90;;;;;;5022848;28;20036;-76
2022/08/29 05:52:42;;;;;;;4.25;2.97;;;17.80;99.90;;;;;;5026897;28;20056;-75
2022/08/29 05:55:08;;;;;;;6.10;3.25;;;18.40;99.90;;;;;;5048199;28;20081;-76
2022/08/29 05:57:33;;;;;;;4.65;2.80;;;18.50;99.90;;;;;;5048181;28;20488;-74
2022/08/29 05:59:59;;;;;;;6.85;3.00;;;18.60;99.90;;;;;;5042035;28;20036;-76
2022/08/29 06:02:25;;;;;;;6.20;3.00;;;18.80;99.90;;;;;;5026217;28;20048;-73
2022/08/29 06:04:51;;;;;;;4.68;3.13;;;18.80;99.90;;;;;;5045599;28;20025;-77
2022/08/29 06:07:17;;;;;;;5.13;3.60;;;18.90;99.90;;;;;;5045378;28;20127;-73
2022/08/29 06:09:44;;;;;;;4.38;3.35;;;18.90;99.90;;;;;;5035376;28;20044;-73
2022/08/29 06:12:12;;;;;;;6.28;3.15;;;18.70;99.90;;;;;;5042668;28;21482;-73
2022/08/29 06:14:38;;;;;;;5.85;3.35;;;18.50;99.90;;;;;;5035881;28;20382;-72
2022/08/29 06:17:05;;;;;;;6.43;3.50;;;18.40;99.90;;;;;;5045555;28;20025;-71
2022/08/29 06:19:33;;;;;;;4.65;2.90;;;18.30;99.90;;;;;;5027949;28;20037;-75
2022/08/29 06:22:03;;;;;;;6.93;3.00;;;18.30;99.90;;;;;;5047986;28;20508;-73
2022/08/29 06:24:29;;;;;;;6.82;2.83;;;18.20;99.90;;;;;;5042615;28;20033;-73
2022/08/29 06:26:55;;;;;;;3.40;2.58;;;18.20;99.90;;;;;;5029526;28;20045;-75
2022/08/29 06:29:21;;;;;;;6.50;2.55;;;18.20;99.90;;;;;;5027003;28;20028;-75
2022/08/29 06:31:47;;;;;;;5.13;2.47;;;18.20;99.90;;;;;;5031614;28;20029;-76
2022/08/29 06:34:12;;;;;;;4.22;2.67;;;18.30;99.90;;;;;;5044101;28;20017;-75
2022/08/29 06:36:38;;;;;;;6.25;2.40;;;18.30;99.90;;;;;;5038206;28;20099;-76
2022/08/29 06:39:08;;;;;;;5.70;2.55;;;18.30;99.90;;;;;;5027485;28;20428;-77
2022/08/29 06:41:35;;;;;;;3.53;2.65;;;18.40;99.90;;;;;;5047844;28;20032;-75
2022/08/29 06:44:01;;;;;;;3.28;2.38;;;18.40;99.90;;;;;;5028646;28;20031;-76
2022/08/29 06:46:37;;;;;;;5.43;2.60;;;18.40;99.90;;;;;;5028325;28;21408;-77
2022/08/29 06:49:05;;;;;;;4.72;2.30;;;18.40;99.90;;;;;;5045724;28;20455;-76
2022/08/29 06:51:33;;;;;;;3.42;2.22;;;18.30;99.90;;;;;;5027997;28;20033;-75
2022/08/29 06:54:01;;;;;;;7.05;2.55;;;18.30;99.90;;;;;;5027124;28;20024;-77
2022/08/29 06:56:27;;;;;;;3.67;2.28;;;18.50;99.90;;;;;;5028955;28;20029;-76
2022/08/29 06:58:53;;;;;;;3.88;2.17;;;18.40;99.90;;;;;;5046655;28;20041;-77
2022/08/29 07:01:20;;;;;;;3.58;2.50;;;18.60;99.90;;;;;;5013685;28;20450;-76
2022/08/29 07:03:46;;;;;;;4.22;2.60;;;18.70;99.90;;;;;;5029399;28;20079;-78
2022/08/29 07:06:12;;;;;;;6.22;2.85;;;18.80;99.90;;;;;;5050238;28;20028;-76
2022/08/29 07:08:39;;;;;;;4.65;2.65;;;18.80;99.90;;;;;;5025124;28;20095;-76
2022/08/29 07:11:05;;;;;;;3.45;2.20;;;18.80;99.90;;;;;;5031393;28;20040;-76
2022/08/29 07:13:33;;;;;;;5.30;2.47;;;18.70;99.90;;;;;;5011469;28;20025;-76
2022/08/29 07:15:59;;;;;;;4.28;2.50;;;18.60;99.90;;;;;;5049339;28;20036;-78
2022/08/29 07:18:25;;;;;;;3.60;2.92;;;18.40;99.90;;;;;;5027099;28;20496;-77
2022/08/29 07:20:51;;;;;;;4.10;2.00;;;18.30;99.90;;;;;;5011044;28;20114;-78
2022/08/29 07:23:17;;;;;;;3.58;2.25;;;18.30;99.90;;;;;;5031674;28;20021;-76
2022/08/29 07:25:42;;;;;;;4.38;2.13;;;18.30;99.90;;;;;;5029559;28;20091;-78
2022/08/29 07:28:08;;;;;;;6.03;2.40;;;18.30;99.90;;;;;;5028765;28;20041;-77
2022/08/29 07:30:34;;;;;;;3.28;1.90;;;18.30;99.90;;;;;;5048107;28;20033;-77
2022/08/29 07:32:59;;;;;;;5.80;1.90;;;18.40;99.90;;;;;;5049635;28;20028;-77
2022/08/29 07:35:26;;;;;;;3.33;2.45;;;18.50;99.90;;;;;;5015817;28;20051;-77
2022/08/29 07:37:55;;;;;;;2.15;1.70;;;18.50;99.90;;;;;;5028938;28;20052;-78
2022/08/29 07:40:21;;;;;;;3.85;2.17;;;18.60;99.90;;;;;;5028396;28;20031;-77
2022/08/29 07:42:47;;;;;;;3.53;2.08;;;18.60;99.90;;;;;;5045198;28;20037;-77
2022/08/29 07:45:13;;;;;;;3.10;1.90;;;18.70;99.90;;;;;;5028511;28;20036;-77
2022/08/29 07:47:39;;;;;;;3.33;1.85;;;18.60;99.90;;;;;;5010777;28;20034;-77
2022/08/29 07:50:08;;;;;;;4.05;1.67;;;18.50;99.90;;;;;;5030542;28;20041;-79
2022/08/29 07:52:34;;;;;;;5.30;1.80;;;18.50;99.90;;;;;;5028210;28;20029;-78
2022/08/29 07:55:00;;;;;;;4.78;2.20;;;18.60;99.90;;;;;;5044227;28;20091;-77
2022/08/29 07:57:26;;;;;;;2.83;1.65;;;18.70;99.90;;;;;;5011122;28;20029;-76
2022/08/29 07:59:52;;;;;;;6.50;3.00;;;18.80;99.90;;;;;;5009586;28;20473;-77
2022/08/29 08:02:18;;;;;;;2.63;1.73;;;18.90;99.90;;;;;;5025897;28;20041;-77
2022/08/29 08:04:44;;;;;;;4.35;2.17;;;19.10;99.90;;;;;;5046398;28;20519;-77
2022/08/29 08:07:10;;;;;;;4.85;2.40;;;19.20;99.90;;;;;;5025985;28;20032;-76
2022/08/29 08:09:36;;;;;;;5.85;1.52;;;19.30;99.90;;;;;;5009801;28;20033;-77
2022/08/29 08:12:04;;;;;;;3.38;1.48;;;19.40;99.90;;;;;;5010759;28;20069;-77
2022/08/29 08:14:31;;;;;;;3.70;1.65;;;19.40;99.90;;;;;;5009897;28;20484;-76
2022/08/29 08:16:57;;;;;;;2.78;1.60;;;19.40;99.90;;;;;;5040799;28;20155;-76
2022/08/29 08:19:22;;;;;;;1.85;1.40;;;19.40;99.90;;;;;;5027157;28;20148;-77
2022/08/29 08:21:48;;;;;;;1.80;1.40;;;19.40;99.90;;;;;;5045180;28;20036;-77
2022/08/29 08:24:14;;;;;;;2.42;1.42;;;19.40;99.90;;;;;;4996484;28;20032;-77
2022/08/29 08:26:39;;;;;;;1.38;1.27;;;19.30;99.90;;;;;;5030488;28;20045;-77
2022/08/29 08:29:05;;;;;;;2.58;1.30;;;19.50;99.90;;;;;;5047617;28;20206;-76
2022/08/29 08:31:34;;;;;;;2.38;1.23;;;19.50;99.90;;;;;;5009780;28;20047;-77
2022/08/29 08:33:59;;;;;;;1.92;1.38;;;19.60;99.90;;;;;;5011958;28;20036;-75
2022/08/29 08:36:28;;;;;;;1.63;1.20;;;19.60;99.90;;;;;;5029503;28;20505;-76
2022/08/29 08:38:55;;;;;;;2.63;1.40;;;19.60;99.90;;;;;;5030078;28;20064;-75
2022/08/29 08:41:27;;;;;;;1.85;1.48;;;19.70;99.90;;;;;;5028099;28;20063;-76
2022/08/29 08:44:09;;;;;;;3.05;1.25;;;19.80;99.90;;;;;;5029430;28;20033;-77
2022/08/29 08:46:46;;;;;;;2.05;1.50;;;19.90;99.90;;;;;;5030364;28;20037;-77
2022/08/29 08:49:20;;;;;;;1.63;1.20;;;20.00;99.90;;;;;;5021676;28;20032;-77
2022/08/29 08:51:56;;;;;;;1.60;1.20;;;20.00;99.90;;;;;;5035585;28;20037;-76
2022/08/29 08:54:30;;;;;;;2.30;1.17;;;20.00;99.90;;;;;;5030272;28;20020;-77
2022/08/29 08:57:11;;;;;;;2.85;1.23;;;19.90;99.90;;;;;;5027080;28;20156;-77
2022/08/29 08:59:47;;;;;;;4.85;1.65;;;19.90;99.90;;;;;;5010828;28;20653;-77
2022/08/29 09:02:33;;;;;;;2.05;1.20;;;19.90;99.90;;;;;;5042491;28;20087;-76
2022/08/29 09:05:02;;;;;;;2.42;1.40;;;20.00;99.90;;;;;;5026585;28;20025;-76
2022/08/29 09:07:46;;;;;;;4.05;1.92;;;20.10;99.90;;;;;;5008800;28;20090;-77
2022/08/29 09:10:18;;;;;;;1.80;1.25;;;20.10;99.90;;;;;;5031713;28;20040;-76
2022/08/29 09:13:20;;;;;;;2.00;1.40;;;20.20;99.90;;;;;;5026694;28;20056;-76
2022/08/29 09:15:50;;;;;;;3.05;1.50;;;20.30;99.90;;;;;;5024795;28;20103;-76
2022/08/29 09:18:36;;;;;;;1.23;0.98;;;20.30;99.90;;;;;;5047019;28;20025;-75
2022/08/29 09:21:20;;;;;;;2.75;1.40;;;20.40;99.90;;;;;;5020914;28;20102;-74
2022/08/29 09:23:50;;;;;;;2.03;1.40;;;20.40;99.90;;;;;;5029229;28;20599;-75
2022/08/29 09:26:18;;;;;;;2.55;1.42;;;20.40;99.90;;;;;;5009724;28;20067;-75
2022/08/29 09:28:44;;;;;;;1.73;1.20;;;20.40;99.90;;;;;;5028314;28;20174;-74
2022/08/29 09:31:21;;;;;;;2.15;1.20;;;20.50;99.90;;;;;;5045927;28;20083;-75
2022/08/29 09:33:54;;;;;;;3.72;1.65;;;20.40;99.90;;;;;;5045774;28;20112;-75
2022/08/29 09:36:44;;;;;;;2.50;1.20;;;20.50;99.90;;;;;;5028277;28;20012;-74
2022/08/29 09:39:16;;;;;;;2.22;1.50;;;20.50;99.90;;;;;;5030083;28;20099;-74
2022/08/29 09:41:43;;;;;;;2.97;1.20;;;20.40;99.90;;;;;;5032812;28;20029;-73
2022/08/29 09:44:24;;;;;;;2.60;1.30;;;20.30;99.90;;;;;;5035393;28;20152;-73
2022/08/29 09:47:09;;;;;;;;;;;20.30;99.90;;;;;;5033412;28;20033;-73
2022/08/29 09:49:38;;;;;;;2.53;1.48;;;20.30;99.90;;;;;;5030258;28;19952;-75
2022/08/29 09:52:16;;;;;;;2.47;1.20;;;20.40;99.90;;;;;;5017267;28;20032;-75
2022/08/29 09:54:43;;;;;;;1.98;1.17;;;20.40;99.90;;;;;;5021454;28;20528;-75
2022/08/29 09:57:18;;;;;;;1.52;1.20;;;20.50;99.90;;;;;;5031012;28;20025;-74
2022/08/29 10:00:07;;;;;;;2.35;1.20;;;20.70;99.90;;;;;;5033005;28;20040;-75
2022/08/29 10:02:57;;;;;;;2.45;1.13;;;20.70;99.90;;;;;;5029704;28;20020;-73
2022/08/29 10:05:33;;;;;;;2.40;1.10;;;20.60;99.90;;;;;;5049883;28;20024;-73
2022/08/29 10:08:00;;;;;;;3.42;1.50;;;20.50;99.90;;;;;;5046134;28;20135;-74
2022/08/29 10:10:29;;;;;;;2.50;1.25;;;20.50;99.90;;;;;;5028207;28;20437;-73
2022/08/29 10:13:17;;;;;;;2.03;1.30;;;20.50;99.90;;;;;;5047473;28;20025;-73
2022/08/29 10:16:03;;;;;;;2.65;1.23;;;20.40;99.90;;;;;;5031092;28;20029;-73
2022/08/29 10:18:47;;;;;;;2.95;1.20;;;20.40;99.90;;;;;;5034017;28;20568;-75
2022/08/29 10:21:20;;;;;;;1.27;1.10;;;20.60;99.90;;;;;;5032680;28;20112;-77
2022/08/29 10:24:05;;;;;;;2.20;1.10;;;20.70;99.90;;;;;;5030231;28;20550;-77
2022/08/29 10:26:53;;;;;;;3.67;1.00;;;20.90;99.90;;;;;;5050196;28;20547;-78
2022/08/29 10:29:38;;;;;;;1.85;1.08;;;20.90;99.90;;;;;;5030637;28;20033;-72
2022/08/29 10:32:09;;;;;;;2.95;1.10;;;20.70;99.90;;;;;;5050855;28;20080;-77
2022/08/29 10:34:56;;;;;;;2.45;0.90;;;20.80;99.90;;;;;;5013121;28;20040;-77
2022/08/29 10:37:34;;;;;;;1.38;1.00;;;20.90;99.90;;;;;;5030627;28;20103;-75
2022/08/29 10:40:03;;;;;;;1.00;0.90;;;20.90;99.90;;;;;;5050608;28;20350;-79
2022/08/29 10:42:32;;;;;;;1.52;0.90;;;21.10;99.90;;;;;;5046630;28;20022;-74
2022/08/29 10:45:12;;;;;;;0.88;0.70;;;21.10;99.90;;;;;;5047993;28;20515;-76
2022/08/29 10:48:05;;;;;;;2.08;0.80;;;21.20;99.90;;;;;;5049543;28;20094;-76
2022/08/29 10:50:56;;;;;;;1.58;1.00;;;21.20;99.90;;;;;;5033360;28;20024;-76
2022/08/29 10:53:35;;;;;;;1.60;0.75;;;21.20;99.90;;;;;;5035334;28;20013;-79
2022/08/29 10:56:14;;;;;;;3.17;0.95;;;21.20;99.90;;;;;;5024617;28;20029;-77
2022/08/29 10:58:58;;;;;;;2.47;1.00;;;21.20;99.90;;;;;;5047408;28;20060;-76
2022/08/29 11:01:39;;;;;;;1.10;0.90;;;21.20;99.90;;;;;;5050208;28;20020;-76
2022/08/29 11:04:33;;;;;;;1.75;0.80;;;21.20;99.90;;;;;;5025762;28;20029;-75
2022/08/29 11:07:19;;;;;;;2.30;0.80;;;21.20;99.90;;;;;;5026698;28;20564;-76
2022/08/29 11:09:49;;;;;;;2.85;1.00;;;21.20;99.90;;;;;;5046512;28;20155;-76
2022/08/29 11:12:21;;;;;;;4.75;0.80;;;21.20;99.90;;;;;;5013282;28;20025;-74
2022/08/29 11:14:59;;;;;;;0.98;0.77;;;21.10;99.90;;;;;;5027165;28;20112;-75
2022/08/29 11:17:31;;;;;;;2.20;1.20;;;21.10;99.90;;;;;;5046755;28;20110;-74
2022/08/29 11:20:03;;;;;;;3.28;0.80;;;21.00;99.90;;;;;;5030310;28;20029;-77
2022/08/29 11:22:47;;;;;;;2.33;1.08;;;21.00;99.90;;;;;;5027592;28;20082;-77
2022/08/29 11:25:16;;;;;;;0.75;0.70;;;21.00;99.90;;;;;;5030882;28;20029;-76
2022/08/29 11:27:51;;;;;;;1.20;0.70;;;21.00;99.90;;;;;;5025691;28;20064;-74
2022/08/29 11:30:23;;;;;;;3.50;1.05;;;21.00;99.90;;;;;;5032413;28;20028;-72
2022/08/29 11:32:51;;;;;;;1.02;0.80;;;21.10;99.90;;;;;;5040995;28;20090;-76
2022/08/29 11:35:25;;;;;;;1.08;0.80;;;21.20;99.90;;;;;;5030627;28;20029;-73
2022/08/29 11:37:53;;;;;;;1.35;0.68;;;21.40;99.90;;;;;;5030482;28;20420;-75
2022/08/29 11:40:28;;;;;;;1.42;0.90;;;21.70;99.90;;;;;;5031397;28;20036;-73
2022/08/29 11:42:58;;;;;;;1.10;0.75;;;21.90;99.90;;;;;;5044213;28;20037;-74
2022/08/29 11:45:31;;;;;;;1.42;0.73;;;21.90;99.90;;;;;;5048993;28;20029;-73
2022/08/29 11:48:02;;;;;;;1.92;0.80;;;21.90;99.90;;;;;;5030562;28;20040;-73
2022/08/29 11:50:34;;;;;;;2.47;1.20;;;21.90;99.90;;;;;;5044128;28;20033;-74
2022/08/29 11:53:13;;;;;;;1.90;1.08;;;21.80;99.90;;;;;;5047505;28;20192;-74
2022/08/29 11:55:42;;;;;;;3.88;1.10;;;21.80;99.90;;;;;;5047898;28;20021;-73
2022/08/29 11:58:14;;;;;;;1.98;1.00;;;21.70;99.90;;;;;;5047195;28;20103;-73
2022/08/29 12:00:42;;;;;;;1.55;0.88;;;21.60;99.90;;;;;;5048330;28;20037;-73
2022/08/29 12:03:32;;;;;;;2.22;1.00;;;21.40;99.90;;;;;;5047155;28;20056;-73
2022/08/29 12:06:18;;;;;;;1.60;0.80;;;21.40;99.90;;;;;;5049018;28;20032;-74
2022/08/29 12:09:07;;;;;;;1.35;0.80;;;21.30;99.90;;;;;;5046982;28;20404;-73
2022/08/29 12:11:57;;;;;;;1.85;1.00;;;21.40;99.90;;;;;;5015344;28;20021;-74
2022/08/29 12:14:33;;;;;;;2.13;1.23;;;21.40;99.90;;;;;;5013137;28;20564;-73
2022/08/29 12:17:02;;;;;;;2.17;1.30;;;21.60;99.90;;;;;;5027370;28;20032;-74
2022/08/29 12:19:46;;;;;;;3.90;1.10;;;21.70;99.90;;;;;;5030003;28;20110;-74
2022/08/29 12:22:46;;;;;;;2.15;1.00;;;21.80;99.90;;;;;;5029370;28;20096;-73
2022/08/29 12:25:27;;;;;;;1.85;1.08;;;21.70;99.90;;;;;;5031692;28;20041;-73
2022/08/29 12:27:59;;;;;;;;;;;21.60;99.90;;;;;;5029738;28;20048;-74
2022/08/29 12:30:25;;;;;;;3.50;0.90;;;21.50;99.90;;;;;;5044243;28;19913;-73
2022/08/29 12:33:09;;;;;;;2.20;1.20;;;21.30;99.90;;;;;;5012617;28;20056;-74
2022/08/29 12:36:11;;;;;;;2.25;0.90;;;21.30;99.90;;;;;;5028096;28;20029;-73
2022/08/29 12:39:13;;;;;;;4.10;1.20;;;21.20;99.90;;;;;;5029646;28;20068;-73
2022/08/29 12:42:16;;;;;;;2.10;1.30;;;21.20;99.90;;;;;;5013209;28;20393;-73
2022/08/29 12:44:59;;;;;;;2.40;0.82;;;21.10;99.90;;;;;;5031068;28;20021;-73
2022/08/29 12:47:31;;;;;;;2.03;0.90;;;20.90;99.90;;;;;;5027303;28;20101;-74
2022/08/29 12:50:05;;;;;;;4.00;1.00;;;21.00;99.90;;;;;;5046386;28;20419;-73
2022/08/29 12:52:33;;;;;;;4.47;1.30;;;20.90;99.90;;;;;;5047144;28;20036;-72
2022/08/29 12:55:22;;;;;;;2.65;0.90;;;20.90;99.90;;;;;;5030816;28;20025;-73
2022/08/29 12:57:49;;;;;;;2.10;1.10;;;20.90;99.90;;;;;;5046483;28;20082;-73
2022/08/29 13:00:20;;;;;;;3.17;1.38;;;20.80;99.90;;;;;;5029099;28;20025;-74
2022/08/29 13:02:57;;;;;;;2.92;1.08;;;20.80;99.90;;;;;;5029982;28;20082;-74
2022/08/29 13:05:25;;;;;;;2.50;1.23;;;20.70;99.90;;;;;;5029198;28;20090;-74